.
WxDataArchive / Data Records for 2009-05-27
2009-05-26 May 2009 2009-05-28

Data Records for Wednesday, 27 May 2009

Time	Temp	Chill	HIndex	Humid	Dewpt	 Wind 	HiWind	WindDir	Rain 	Barom 
-----	----	-----	------	-----	-----	------	------	-------	-----	----- 
00:00	65.8	65.8	65.8	96	64.6	0	1	90	0.00	29.782 
00:05	65.6	65.6	65.6	96	64.4	0	1	90	0.00	29.782 
00:10	65.6	65.6	65.6	96	64.4	0	2	90	0.00	29.782 
00:15	65.5	65.5	65.5	96	64.3	1	3	90	0.00	29.776 
00:20	65.3	65.3	65.3	96	64.1	1	3	90	0.00	29.776 
00:25	65.2	65.2	65.2	96	64.0	1	2	90	0.00	29.776 
00:30	65.2	65.2	65.2	96	64.0	0	3	90	0.00	29.779 
00:35	65.0	65.0	65.0	96	63.8	0	2	90	0.00	29.779 
00:40	65.0	65.0	65.0	96	63.8	0	2	90	0.00	29.779 
00:45	64.8	64.8	64.8	96	63.6	1	3	90	0.00	29.776 
00:50	64.7	64.7	64.7	96	63.5	1	2	90	0.00	29.776 
00:55	64.7	64.7	64.7	96	63.5	1	3	90	0.00	29.776 
01:00	64.5	64.5	64.5	96	63.3	1	3	90	0.00	29.775 
01:05	64.5	64.5	64.5	96	63.3	1	4	90	0.00	29.775 
01:10	64.5	64.5	64.5	96	63.3	1	3	90	0.00	29.775 
01:15	64.5	64.5	64.5	96	63.3	1	3	90	0.00	29.766 
01:20	64.5	64.5	64.5	96	63.3	1	3	90	0.00	29.766 
01:25	64.5	64.5	64.5	96	63.3	1	3	90	0.00	29.766 
01:30	64.3	64.3	64.3	96	63.1	0	2	90	0.00	29.765 
01:35	64.3	64.3	64.3	96	63.1	0	2	90	0.00	29.765 
01:40	64.3	64.3	64.3	96	63.1	0	2	90	0.00	29.765 
01:45	64.3	64.3	64.3	96	63.1	0	2	90	0.00	29.762 
01:50	64.2	64.2	64.2	96	63.0	0	1	90	0.00	29.762 
01:55	64.2	64.2	64.2	96	63.0	0	2	90	0.00	29.762 
02:00	64.2	64.2	64.2	96	63.0	0	1	90	0.00	29.758 
02:05	64.0	64.0	64.0	96	62.8	0	1	90	0.00	29.758 
02:10	64.0	64.0	64.0	96	62.8	0	1	90	0.00	29.758 
02:15	63.9	63.9	63.9	96	62.7	0	1	90	0.00	29.751 
02:20	63.9	63.9	63.9	96	62.7	0	1	90	0.00	29.751 
02:25	63.9	63.9	63.9	96	62.7	0	0	---	0.00	29.751 
02:30	63.7	63.7	63.7	96	62.5	0	0	---	0.00	29.751 
02:35	63.7	63.7	63.7	96	62.5	0	0	---	0.00	29.751 
02:40	63.7	63.7	63.7	96	62.5	0	0	---	0.00	29.751 
02:45	63.7	63.7	63.7	96	62.5	0	1	90	0.00	29.748 
02:50	63.7	63.7	63.7	96	62.5	0	0	---	0.00	29.748 
02:55	63.7	63.7	63.7	96	62.5	0	0	---	0.00	29.748 
03:00	63.7	63.7	63.7	96	62.5	0	1	90	0.00	29.749 
03:05	63.7	63.7	63.7	96	62.5	0	0	---	0.00	29.749 
03:10	63.9	63.9	63.9	96	62.7	0	0	---	0.00	29.749 
03:15	63.7	63.7	63.7	96	62.5	0	0	---	0.00	29.749 
03:20	63.7	63.7	63.7	96	62.5	0	0	---	0.00	29.749 
03:25	63.5	63.5	63.5	96	62.3	0	0	---	0.00	29.749 
03:30	63.4	63.4	63.4	96	62.2	0	0	---	0.00	29.746 
03:35	63.2	63.2	63.2	96	62.0	0	0	---	0.00	29.746 
03:40	63.2	63.2	63.2	96	62.0	0	0	---	0.00	29.746 
03:45	63.1	63.1	63.1	96	61.9	0	0	---	0.00	29.740 
03:50	63.1	63.1	63.1	96	61.9	0	0	---	0.00	29.740 
03:55	63.1	63.1	63.1	96	61.9	0	1	90	0.00	29.740 
04:00	63.1	63.1	63.1	96	61.9	0	1	90	0.00	29.735 
04:05	63.1	63.1	63.1	96	61.9	0	0	---	0.00	29.735 
04:10	62.9	62.9	62.9	96	61.7	0	0	---	0.00	29.735 
04:15	62.9	62.9	62.9	96	61.7	0	0	---	0.00	29.732 
04:20	62.9	62.9	62.9	96	61.7	0	0	---	0.00	29.732 
04:25	62.9	62.9	62.9	96	61.7	0	0	---	0.00	29.732 
04:30	63.1	63.1	63.1	96	61.9	0	0	---	0.00	29.731 
04:35	63.1	63.1	63.1	96	61.9	0	0	---	0.00	29.731 
04:40	63.2	63.2	63.2	96	62.0	0	0	---	0.00	29.731 
04:45	63.2	63.2	63.2	96	62.0	0	0	---	0.00	29.731 
04:50	63.2	63.2	63.2	96	62.0	0	0	---	0.00	29.731 
04:55	63.2	63.2	63.2	96	62.0	0	0	---	0.00	29.731 
05:00	63.4	63.4	63.4	96	62.2	0	0	---	0.00	29.732 
05:05	63.4	63.4	63.4	97	62.5	0	0	---	0.00	29.732 
05:10	63.7	63.7	63.7	97	62.8	0	1	90	0.00	29.732 
05:15	63.9	63.9	63.9	97	63.0	0	2	90	0.00	29.734 
05:20	64.0	64.0	64.0	97	63.1	0	0	---	0.00	29.734 
05:25	64.0	64.0	64.0	97	63.1	0	0	---	0.00	29.734 
05:30	64.0	64.0	64.0	97	63.1	0	0	---	0.00	29.735 
05:35	64.2	64.2	64.2	97	63.3	0	0	---	0.01	29.735 
05:40	64.2	64.2	64.2	97	63.3	0	0	---	0.00	29.735 
05:45	64.3	64.3	64.3	97	63.4	0	1	90	0.03	29.739 
05:50	64.7	64.7	64.7	97	63.8	1	3	90	0.12	29.739 
05:55	65.3	65.3	65.3	97	64.4	2	7	90	0.04	29.739 
06:00	65.8	65.8	65.8	97	64.9	0	1	135	0.00	29.726 
06:05	66.1	66.1	66.1	97	65.2	0	1	135	0.00	29.726 
06:10	66.1	66.1	66.1	97	65.2	0	0	---	0.00	29.726 
06:15	66.0	66.0	66.0	97	65.1	0	1	135	0.00	29.732 
06:20	66.0	66.0	66.0	97	65.1	0	1	135	0.00	29.732 
06:25	66.0	66.0	66.0	97	65.1	0	1	135	0.00	29.732 
06:30	66.1	66.1	66.1	97	65.2	0	1	135	0.00	29.733 
06:35	66.1	66.1	66.1	97	65.2	0	1	135	0.00	29.733 
06:40	66.1	66.1	66.1	97	65.2	0	1	135	0.00	29.733 
06:45	66.3	66.3	66.3	97	65.4	0	2	135	0.00	29.741 
06:50	66.4	66.4	66.4	97	65.5	0	3	112	0.00	29.741 
06:55	66.4	66.4	66.4	97	65.5	0	1	112	0.00	29.741 
07:00	66.6	66.6	66.6	97	65.7	0	2	112	0.00	29.742 
07:05	66.8	66.8	66.8	97	65.9	0	2	112	0.00	29.742 
07:10	66.8	66.8	66.8	97	65.9	0	0	---	0.00	29.742 
07:15	66.8	66.8	66.8	97	65.9	0	1	112	0.00	29.750 
07:20	66.8	66.8	66.8	97	65.9	0	1	112	0.00	29.750 
07:25	66.8	66.8	66.8	97	65.9	0	1	112	0.00	29.750 
07:30	66.8	66.8	66.8	97	65.9	0	1	112	0.00	29.748 
07:35	66.9	66.9	66.9	97	66.0	0	1	112	0.00	29.748 
07:40	67.1	67.1	67.1	97	66.2	0	1	112	0.00	29.748 
07:45	67.3	67.3	67.3	97	66.4	0	1	112	0.00	29.743 
07:50	67.4	67.4	67.4	97	66.5	0	1	112	0.00	29.743 
07:55	67.8	67.8	67.8	97	66.9	0	1	112	0.00	29.743 
08:00	68.1	68.1	68.1	97	67.2	0	1	112	0.00	29.743 
08:05	68.4	68.4	68.4	97	67.5	0	1	112	0.00	29.743 
08:10	68.6	68.6	68.6	97	67.7	0	3	270	0.00	29.743 
08:15	68.8	68.8	68.8	97	67.9	0	2	270	0.00	29.748 
08:20	68.9	68.9	68.9	97	68.0	0	2	270	0.00	29.748 
08:25	69.1	69.1	69.1	97	68.2	0	1	270	0.00	29.748 
08:30	69.1	69.1	69.1	97	68.2	1	3	248	0.00	29.750 
08:35	69.4	69.4	69.4	97	68.5	1	3	270	0.00	29.750 
08:40	69.6	69.6	69.6	97	68.7	0	3	270	0.00	29.750 
08:45	69.8	69.8	69.8	97	68.9	1	4	270	0.00	29.747 
08:50	69.6	69.6	69.6	96	68.4	1	5	270	0.00	29.747 
08:55	69.6	69.6	69.6	96	68.4	1	3	270	0.00	29.747 
09:00	69.8	69.8	69.8	96	68.6	1	3	292	0.00	29.749 
09:05	70.1	70.1	70.1	96	68.9	0	2	292	0.00	29.749 
09:10	70.4	70.4	70.4	96	69.2	1	5	248	0.00	29.749 
09:15	70.8	70.8	70.8	96	69.6	1	4	248	0.00	29.751 
09:20	71.1	71.1	71.1	96	69.9	1	3	248	0.00	29.751 
09:25	71.5	71.5	71.5	95	70.0	1	3	248	0.00	29.751 
09:30	71.5	71.5	71.5	94	69.7	2	4	292	0.00	29.750 
09:35	71.8	71.8	71.8	92	69.3	1	3	248	0.00	29.750 
09:40	72.1	72.1	72.1	91	69.3	1	4	248	0.00	29.750 
09:45	72.3	72.3	72.3	89	68.9	1	3	248	0.00	29.751 
09:50	72.5	72.5	72.5	88	68.7	1	3	248	0.00	29.751 
09:55	72.7	72.7	72.7	88	68.9	1	3	270	0.00	29.751 
10:00	73.0	73.0	73.0	87	68.9	1	3	270	0.00	29.751 
10:05	73.3	73.3	73.3	86	68.8	1	2	248	0.00	29.751 
10:10	73.7	73.7	73.7	85	68.9	1	3	270	0.00	29.751 
10:15	74.2	74.2	74.2	84	69.0	1	5	270	0.00	29.749 
10:20	74.4	74.4	74.4	82	68.5	1	3	248	0.00	29.749 
10:25	74.4	74.4	74.4	82	68.5	1	3	248	0.00	29.749 
10:30	75.1	75.1	75.5	82	69.2	1	4	248	0.00	29.747 
10:35	75.4	75.4	76.0	81	69.1	1	4	292	0.00	29.747 
10:40	75.6	75.6	76.5	79	68.6	1	3	248	0.00	29.747 
10:45	75.6	75.6	76.4	80	69.0	1	3	248	0.00	29.745 
10:50	75.6	75.6	76.5	79	68.6	1	4	270	0.00	29.745 
10:55	75.6	75.6	76.4	80	69.0	1	4	270	0.00	29.745 
11:00	75.3	75.3	76.1	79	68.3	2	4	270	0.00	29.747 
11:05	74.9	74.9	74.9	79	67.9	1	3	270	0.00	29.747 
11:10	74.7	74.7	74.7	81	68.5	0	4	248	0.00	29.747 
11:15	74.7	74.7	74.7	82	68.8	1	3	270	0.00	29.746 
11:20	75.6	75.6	76.3	81	69.3	1	4	270	0.00	29.746 
11:25	76.0	76.0	77.2	77	68.3	2	3	270	0.00	29.746 
11:30	75.8	75.8	76.9	78	68.4	1	4	248	0.00	29.742 
11:35	75.6	75.6	76.6	78	68.2	0	2	248	0.00	29.742 
11:40	75.4	75.4	76.4	77	67.7	1	4	248	0.00	29.742 
11:45	76.1	76.1	77.3	78	68.7	1	3	270	0.00	29.732 
11:50	77.0	77.0	78.7	76	68.8	1	5	270	0.00	29.732 
11:55	77.6	77.6	79.6	74	68.6	1	3	270	0.00	29.732 
12:00	77.6	77.6	79.5	73	68.2	2	7	270	0.00	29.725 
12:05	77.7	77.7	79.7	73	68.3	1	3	315	0.00	29.725 
12:10	78.3	78.3	80.6	73	68.9	1	3	68	0.00	29.725 
12:15	78.6	78.6	81.0	73	69.2	1	3	90	0.00	29.716 
12:20	78.8	78.8	81.3	72	69.0	2	3	68	0.00	29.716 
12:25	79.0	79.0	81.6	72	69.2	2	5	270	0.00	29.716 
12:30	78.6	78.6	80.8	70	68.0	3	7	90	0.00	29.716 
12:35	77.9	77.9	79.9	72	68.1	2	5	68	0.00	29.716 
12:40	76.1	76.1	77.8	70	65.6	3	18	270	0.02	29.716 
12:45	72.3	72.3	72.3	74	63.5	3	7	270	0.00	29.753 
12:50	70.4	70.4	70.4	80	63.9	1	3	270	0.02	29.753 
12:55	69.3	69.3	69.3	83	63.9	0	1	270	0.02	29.753 
13:00	68.4	68.4	68.4	86	64.0	0	1	270	0.03	29.737 
13:05	68.1	68.1	68.1	88	64.4	0	0	---	0.01	29.737 
13:10	67.9	67.9	67.9	90	64.9	0	1	270	0.00	29.737 
13:15	67.8	67.8	67.8	90	64.8	0	1	270	0.00	29.743 
13:20	67.9	67.9	67.9	91	65.2	0	1	270	0.01	29.743 
13:25	67.9	67.9	67.9	92	65.5	0	1	270	0.00	29.743 
13:30	68.1	68.1	68.1	92	65.7	0	3	270	0.00	29.736 
13:35	68.1	68.1	68.1	92	65.7	0	1	270	0.00	29.736 
13:40	68.3	68.3	68.3	92	65.9	0	2	270	0.00	29.736 
13:45	68.4	68.4	68.4	93	66.3	0	1	270	0.00	29.725 
13:50	68.6	68.6	68.6	93	66.5	0	0	---	0.00	29.725 
13:55	68.9	68.9	68.9	93	66.8	0	1	270	0.00	29.725 
14:00	69.3	69.3	69.3	94	67.5	0	1	270	0.00	29.719 
14:05	69.9	69.9	69.9	94	68.1	0	1	270	0.00	29.719 
14:10	70.8	70.8	70.8	94	69.0	0	1	270	0.00	29.719 
14:15	71.3	71.3	71.3	94	69.5	1	3	270	0.00	29.707 
14:20	72.1	72.1	72.1	94	70.3	0	1	270	0.00	29.707 
14:25	73.2	73.2	73.2	93	71.0	0	2	270	0.00	29.707 
14:30	74.4	74.4	74.4	92	71.9	0	3	270	0.00	29.695 
14:35	75.1	75.1	74.4	89	71.6	1	3	248	0.00	29.695 
14:40	76.1	76.1	76.7	85	71.2	1	3	270	0.00	29.695 
14:45	77.2	77.2	78.9	81	70.9	1	3	270	0.00	29.684 
14:50	77.9	77.9	80.0	76	69.7	1	4	248	0.00	29.684 
14:55	78.8	78.8	81.5	75	70.2	1	3	248	0.00	29.684 
15:00	79.6	79.6	82.8	75	71.0	1	4	68	0.00	29.674 
15:05	80.1	80.1	83.6	74	71.0	1	3	270	0.00	29.674 
15:10	80.5	80.5	83.9	71	70.2	1	4	248	0.00	29.674 
15:15	80.7	80.7	84.3	71	70.4	1	3	248	0.00	29.669 
15:20	80.9	80.9	84.0	67	68.9	1	5	248	0.00	29.669 
15:25	80.5	80.5	83.2	66	68.1	2	5	248	0.00	29.669 
15:30	80.1	80.1	82.7	67	68.1	2	5	270	0.00	29.675 
15:35	80.9	80.9	83.2	62	66.6	2	4	248	0.00	29.675 
15:40	80.9	80.9	82.7	58	64.7	2	5	270	0.00	29.675 
15:45	80.7	80.7	82.5	59	65.0	2	5	270	0.00	29.668 
15:50	80.7	80.7	82.9	62	66.4	1	4	248	0.00	29.668 
15:55	81.6	81.6	84.4	63	67.8	1	4	248	0.00	29.668 
16:00	82.4	82.4	84.1	55	64.6	3	5	270	0.00	29.667 
16:05	82.2	82.2	84.2	57	65.4	3	7	270	0.00	29.667 
16:10	82.0	82.0	83.7	56	64.7	1	4	270	0.00	29.667 
16:15	82.2	82.2	83.8	55	64.4	1	3	270	0.00	29.666 
16:20	82.6	82.6	84.9	58	66.3	1	3	292	0.00	29.666 
16:25	82.8	82.8	84.4	54	64.4	1	4	270	0.00	29.666 
16:30	83.0	83.0	84.7	54	64.6	2	5	270	0.00	29.661 
16:35	83.4	83.4	85.0	53	64.4	1	4	248	0.00	29.661 
16:40	83.4	83.4	84.8	52	63.9	1	4	248	0.00	29.661 
16:45	83.4	83.4	84.8	52	63.9	2	5	292	0.00	29.653 
16:50	83.6	83.6	84.6	50	63.0	2	4	270	0.00	29.653 
16:55	83.6	83.6	84.6	50	63.0	1	3	270	0.00	29.653 
17:00	83.2	83.2	84.7	53	64.3	1	4	270	0.00	29.654 
17:05	82.8	82.8	83.8	51	62.8	1	3	248	0.00	29.654 
17:10	83.2	83.2	84.3	51	63.2	1	4	315	0.00	29.654 
17:15	82.8	82.8	83.7	50	62.2	1	4	270	0.00	29.658 
17:20	82.8	82.8	83.8	51	62.8	1	3	270	0.00	29.658 
17:25	83.4	83.4	84.8	52	63.9	0	2	270	0.00	29.658 
17:30	83.6	83.6	84.4	49	62.4	2	4	270	0.00	29.658 
17:35	83.8	83.8	84.7	49	62.6	2	5	270	0.00	29.658 
17:40	83.8	83.8	84.9	50	63.1	1	3	248	0.00	29.658 
17:45	83.2	83.2	83.8	48	61.4	1	4	270	0.00	29.663 
17:50	83.0	83.0	83.7	49	61.8	1	2	270	0.00	29.663 
17:55	83.0	83.0	83.9	50	62.4	2	5	270	0.00	29.663 
18:00	83.2	83.2	84.1	50	62.6	1	4	292	0.00	29.660 
18:05	82.8	82.8	83.5	49	61.7	2	4	248	0.00	29.660 
18:10	83.0	83.0	83.9	50	62.4	1	3	248	0.00	29.660 
18:15	83.0	83.0	83.9	50	62.4	1	5	270	0.00	29.651 
18:20	83.4	83.4	84.2	49	62.2	2	3	270	0.00	29.651 
18:25	83.2	83.2	84.0	49	62.0	1	3	248	0.00	29.651 
18:30	83.0	83.0	83.7	49	61.8	1	4	248	0.00	29.644 
18:35	82.6	82.6	83.4	50	62.0	1	3	248	0.00	29.644 
18:40	82.2	82.2	83.0	50	61.7	1	2	270	0.00	29.644 
18:45	82.0	82.0	82.9	51	62.1	0	2	270	0.00	29.635 
18:50	81.6	81.6	82.5	51	61.7	0	2	270	0.00	29.635 
18:55	81.4	81.4	82.4	52	62.1	0	2	270	0.00	29.635 
19:00	81.6	81.6	82.8	53	62.8	0	1	270	0.00	29.625 
19:05	81.6	81.6	82.6	52	62.2	0	2	270	0.00	29.625 
19:10	81.4	81.4	82.4	52	62.1	0	2	270	0.00	29.625 
19:15	81.2	81.2	82.3	53	62.4	0	1	270	0.00	29.632 
19:20	81.1	81.1	82.2	53	62.3	0	1	270	0.00	29.632 
19:25	80.9	80.9	82.1	54	62.7	0	1	270	0.00	29.632 
19:30	80.7	80.7	81.9	54	62.5	0	2	315	0.00	29.626 
19:35	80.5	80.5	81.7	54	62.3	1	3	315	0.00	29.626 
19:40	79.6	79.6	81.2	58	63.5	4	8	270	0.00	29.626 
19:45	77.4	77.4	79.2	66	65.1	3	6	270	0.00	29.643 
19:50	75.4	75.4	76.8	73	66.1	3	6	270	0.00	29.643 
19:55	73.9	73.9	73.9	79	67.0	1	4	270	0.00	29.643 
20:00	73.0	73.0	73.0	82	67.2	1	3	270	0.00	29.639 
20:05	72.5	72.5	72.5	83	67.0	1	2	270	0.00	29.639 
20:10	72.3	72.3	72.3	83	66.8	1	3	270	0.00	29.639 
20:15	72.1	72.1	72.1	83	66.6	0	2	270	0.00	29.642 
20:20	72.1	72.1	72.1	83	66.6	0	1	270	0.00	29.642 
20:25	72.1	72.1	72.1	83	66.6	0	1	270	0.00	29.642 
20:30	72.3	72.3	72.3	83	66.8	0	0	---	0.00	29.642 
20:35	72.3	72.3	72.3	83	66.8	0	0	---	0.00	29.642 
20:40	72.3	72.3	72.3	82	66.5	0	1	270	0.00	29.642 
20:45	72.3	72.3	72.3	83	66.8	0	0	---	0.00	29.641 
20:50	72.3	72.3	72.3	83	66.8	0	0	---	0.00	29.641 
20:55	72.1	72.1	72.1	83	66.6	0	0	---	0.00	29.641 
21:00	72.0	72.0	72.0	83	66.5	0	0	---	0.00	29.644 
21:05	71.8	71.8	71.8	83	66.3	0	0	---	0.00	29.644 
21:10	71.6	71.6	71.6	84	66.5	0	0	---	0.00	29.644 
21:15	71.6	71.6	71.6	84	66.5	0	0	---	0.00	29.646 
21:20	71.5	71.5	71.5	84	66.4	0	0	---	0.00	29.646 
21:25	71.3	71.3	71.3	84	66.2	0	0	---	0.00	29.646 
21:30	71.1	71.1	71.1	84	66.0	0	0	---	0.00	29.652 
21:35	70.9	70.9	70.9	85	66.2	0	0	---	0.00	29.652 
21:40	70.8	70.8	70.8	85	66.1	0	0	---	0.00	29.652 
21:45	70.6	70.6	70.6	85	65.9	0	0	---	0.00	29.651 
21:50	70.4	70.4	70.4	86	66.0	0	0	---	0.00	29.651 
21:55	70.3	70.3	70.3	87	66.2	0	0	---	0.00	29.651 
22:00	70.3	70.3	70.3	87	66.2	0	0	---	0.00	29.659 
22:05	70.3	70.3	70.3	87	66.2	0	1	270	0.00	29.659 
22:10	70.4	70.4	70.4	86	66.0	0	2	270	0.00	29.659 
22:15	70.8	70.8	70.8	85	66.1	0	1	315	0.00	29.662 
22:20	70.9	70.9	70.9	84	65.8	0	1	315	0.00	29.662 
22:25	70.9	70.9	70.9	83	65.5	0	1	315	0.00	29.662 
22:30	70.9	70.9	70.9	84	65.8	0	0	---	0.00	29.652 
22:35	70.8	70.8	70.8	84	65.7	0	0	---	0.00	29.652 
22:40	70.4	70.4	70.4	84	65.3	0	0	---	0.00	29.652 
22:45	70.3	70.3	70.3	84	65.2	0	0	---	0.00	29.655 
22:50	69.9	69.9	69.9	85	65.2	0	0	---	0.01	29.655 
22:55	69.8	69.8	69.8	86	65.4	0	0	---	0.00	29.655 
23:00	69.6	69.6	69.6	87	65.6	0	0	---	0.00	29.659 
23:05	69.4	69.4	69.4	88	65.7	0	0	---	0.00	29.659 
23:10	69.1	69.1	69.1	88	65.4	0	0	---	0.00	29.659 
23:15	68.9	68.9	68.9	89	65.5	0	0	---	0.00	29.654 
23:20	68.9	68.9	68.9	89	65.5	0	0	---	0.00	29.654 
23:25	68.8	68.8	68.8	90	65.7	0	0	---	0.00	29.654 
23:30	68.4	68.4	68.4	90	65.3	0	0	---	0.00	29.655 
23:35	68.4	68.4	68.4	91	65.7	0	0	---	0.00	29.655 
23:40	68.3	68.3	68.3	91	65.6	0	0	---	0.00	29.655 
23:45	68.3	68.3	68.3	92	65.9	0	0	---	0.00	29.658 
23:50	68.1	68.1	68.1	92	65.7	0	1	315	0.00	29.658 
23:55	67.9	67.9	67.9	92	65.5	0	1	315	0.00	29.658 

CoCoRaHS
IN-AL-39
A2 Web Hosting
Creative Commons License
GoDaddy
search engine by freefind advanced

loaded 2018-11-22 05:49:40 • last modified 2010-11-18 10:43:29
Privacy PolicyDisclaimer
• wx.awcolley.com is powered by PmWiki v.2002016 •
• all content (unless otherwise noted) © 2018 A W Colley